sensor_id;sensor_type;location;lat;lon;timestamp;P1;durP1;ratioP1;P2;durP2;ratioP2
60088;SDS011;45961;53.574;55.878;2023-04-03T00:02:07;5.88;;;2.55;;
60088;SDS011;45961;53.574;55.878;2023-04-03T00:03:08;6.03;;;3.05;;
60088;SDS011;45961;53.574;55.878;2023-04-03T00:04:10;3.88;;;2.47;;
60088;SDS011;45961;53.574;55.878;2023-04-03T00:05:11;5.20;;;2.28;;
60088;SDS011;45961;53.574;55.878;2023-04-03T00:06:12;6.78;;;2.40;;
60088;SDS011;45961;53.574;55.878;2023-04-03T00:08:15;6.43;;;2.90;;
60088;SDS011;45961;53.574;55.878;2023-04-03T00:09:16;9.70;;;3.05;;
60088;SDS011;45961;53.574;55.878;2023-04-03T00:10:17;6.03;;;2.90;;
60088;SDS011;45961;53.574;55.878;2023-04-03T00:11:18;6.00;;;2.58;;
60088;SDS011;45961;53.574;55.878;2023-04-03T00:12:21;6.47;;;3.28;;
60088;SDS011;45961;53.574;55.878;2023-04-03T00:13:22;7.20;;;3.22;;
60088;SDS011;45961;53.574;55.878;2023-04-03T00:14:23;5.38;;;3.40;;
60088;SDS011;45961;53.574;55.878;2023-04-03T00:15:24;5.80;;;3.15;;
60088;SDS011;45961;53.574;55.878;2023-04-03T00:16:25;4.93;;;3.25;;
60088;SDS011;45961;53.574;55.878;2023-04-03T00:17:26;6.68;;;3.05;;
60088;SDS011;45961;53.574;55.878;2023-04-03T00:18:27;6.32;;;2.83;;
60088;SDS011;45961;53.574;55.878;2023-04-03T00:19:28;7.93;;;3.20;;
60088;SDS011;45961;53.574;55.878;2023-04-03T00:20:29;7.85;;;3.78;;
60088;SDS011;45961;53.574;55.878;2023-04-03T00:21:31;7.53;;;3.05;;
60088;SDS011;45961;53.574;55.878;2023-04-03T00:22:32;5.78;;;3.20;;
60088;SDS011;45961;53.574;55.878;2023-04-03T00:23:33;6.57;;;3.45;;
60088;SDS011;45961;53.574;55.878;2023-04-03T00:24:35;5.35;;;2.78;;
60088;SDS011;45961;53.574;55.878;2023-04-03T00:25:38;6.65;;;2.95;;
60088;SDS011;45961;53.574;55.878;2023-04-03T00:26:39;5.88;;;2.92;;
60088;SDS011;45961;53.574;55.878;2023-04-03T00:27:40;5.55;;;3.00;;
60088;SDS011;45961;53.574;55.878;2023-04-03T00:29:42;10.13;;;3.38;;
60088;SDS011;45961;53.574;55.878;2023-04-03T00:30:43;3.10;;;2.22;;
60088;SDS011;45961;53.574;55.878;2023-04-03T00:31:44;4.97;;;2.63;;
60088;SDS011;45961;53.574;55.878;2023-04-03T00:32:47;4.60;;;2.20;;
60088;SDS011;45961;53.574;55.878;2023-04-03T00:33:52;6.47;;;2.60;;
60088;SDS011;45961;53.574;55.878;2023-04-03T00:34:52;4.97;;;3.00;;
60088;SDS011;45961;53.574;55.878;2023-04-03T00:35:53;5.25;;;2.25;;
60088;SDS011;45961;53.574;55.878;2023-04-03T00:37:56;5.18;;;2.13;;
60088;SDS011;45961;53.574;55.878;2023-04-03T00:38:57;7.03;;;2.85;;
60088;SDS011;45961;53.574;55.878;2023-04-03T00:39:58;4.30;;;2.30;;
60088;SDS011;45961;53.574;55.878;2023-04-03T00:40:59;5.22;;;1.85;;
60088;SDS011;45961;53.574;55.878;2023-04-03T00:42:00;3.22;;;1.73;;
60088;SDS011;45961;53.574;55.878;2023-04-03T00:44:18;4.38;;;1.60;;
60088;SDS011;45961;53.574;55.878;2023-04-03T00:45:31;5.05;;;1.80;;
60088;SDS011;45961;53.574;55.878;2023-04-03T00:46:37;2.80;;;1.42;;
60088;SDS011;45961;53.574;55.878;2023-04-03T00:47:38;3.55;;;1.52;;
60088;SDS011;45961;53.574;55.878;2023-04-03T00:48:42;3.00;;;1.25;;
60088;SDS011;45961;53.574;55.878;2023-04-03T00:49:46;6.82;;;1.83;;
60088;SDS011;45961;53.574;55.878;2023-04-03T00:50:47;2.75;;;1.52;;
60088;SDS011;45961;53.574;55.878;2023-04-03T00:51:49;3.03;;;1.42;;
60088;SDS011;45961;53.574;55.878;2023-04-03T00:52:52;3.38;;;1.75;;
60088;SDS011;45961;53.574;55.878;2023-04-03T00:53:55;2.80;;;1.48;;
60088;SDS011;45961;53.574;55.878;2023-04-03T00:55:00;2.80;;;2.22;;
60088;SDS011;45961;53.574;55.878;2023-04-03T00:56:08;2.92;;;1.88;;
60088;SDS011;45961;53.574;55.878;2023-04-03T00:57:11;3.03;;;1.50;;
60088;SDS011;45961;53.574;55.878;2023-04-03T00:58:12;2.38;;;1.20;;
60088;SDS011;45961;53.574;55.878;2023-04-03T00:59:18;3.45;;;1.58;;
60088;SDS011;45961;53.574;55.878;2023-04-03T01:00:28;2.55;;;1.27;;
60088;SDS011;45961;53.574;55.878;2023-04-03T01:01:30;3.85;;;1.10;;
60088;SDS011;45961;53.574;55.878;2023-04-03T01:02:32;2.97;;;1.40;;
60088;SDS011;45961;53.574;55.878;2023-04-03T01:03:33;1.85;;;1.30;;
60088;SDS011;45961;53.574;55.878;2023-04-03T01:04:41;2.90;;;1.17;;
60088;SDS011;45961;53.574;55.878;2023-04-03T01:05:44;2.88;;;1.33;;
60088;SDS011;45961;53.574;55.878;2023-04-03T01:06:45;3.90;;;1.65;;
60088;SDS011;45961;53.574;55.878;2023-04-03T01:07:47;2.67;;;1.30;;
60088;SDS011;45961;53.574;55.878;2023-04-03T01:08:50;3.60;;;1.40;;
60088;SDS011;45961;53.574;55.878;2023-04-03T01:09:53;3.22;;;1.58;;
60088;SDS011;45961;53.574;55.878;2023-04-03T01:10:57;3.33;;;1.33;;
60088;SDS011;45961;53.574;55.878;2023-04-03T01:13:33;3.85;;;1.85;;
60088;SDS011;45961;53.574;55.878;2023-04-03T01:14:34;2.55;;;1.33;;
60088;SDS011;45961;53.574;55.878;2023-04-03T01:15:35;4.07;;;1.63;;
60088;SDS011;45961;53.574;55.878;2023-04-03T01:16:36;2.03;;;1.20;;
60088;SDS011;45961;53.574;55.878;2023-04-03T01:17:44;3.58;;;1.52;;
60088;SDS011;45961;53.574;55.878;2023-04-03T01:19:51;3.28;;;1.67;;
60088;SDS011;45961;53.574;55.878;2023-04-03T01:22:59;3.08;;;1.40;;
60088;SDS011;45961;53.574;55.878;2023-04-03T01:25:30;1.92;;;1.30;;
60088;SDS011;45961;53.574;55.878;2023-04-03T01:26:32;2.13;;;1.73;;
60088;SDS011;45961;53.574;55.878;2023-04-03T01:27:33;3.08;;;1.42;;
60088;SDS011;45961;53.574;55.878;2023-04-03T01:28:35;2.40;;;1.45;;
60088;SDS011;45961;53.574;55.878;2023-04-03T01:29:36;7.80;;;1.58;;
60088;SDS011;45961;53.574;55.878;2023-04-03T01:30:48;2.72;;;1.67;;
60088;SDS011;45961;53.574;55.878;2023-04-03T01:31:58;2.60;;;1.40;;
60088;SDS011;45961;53.574;55.878;2023-04-03T01:33:00;3.08;;;1.40;;
60088;SDS011;45961;53.574;55.878;2023-04-03T01:34:02;2.88;;;1.50;;
60088;SDS011;45961;53.574;55.878;2023-04-03T01:35:07;3.95;;;1.77;;
60088;SDS011;45961;53.574;55.878;2023-04-03T01:36:10;2.08;;;1.45;;
60088;SDS011;45961;53.574;55.878;2023-04-03T01:37:15;3.53;;;1.27;;
60088;SDS011;45961;53.574;55.878;2023-04-03T01:38:16;1.40;;;1.13;;
60088;SDS011;45961;53.574;55.878;2023-04-03T01:39:18;3.83;;;1.40;;
60088;SDS011;45961;53.574;55.878;2023-04-03T01:41:20;2.15;;;1.33;;
60088;SDS011;45961;53.574;55.878;2023-04-03T01:42:22;3.58;;;1.40;;
60088;SDS011;45961;53.574;55.878;2023-04-03T01:43:23;3.80;;;1.27;;
60088;SDS011;45961;53.574;55.878;2023-04-03T01:44:25;4.88;;;1.63;;
60088;SDS011;45961;53.574;55.878;2023-04-03T01:45:27;2.35;;;1.40;;
60088;SDS011;45961;53.574;55.878;2023-04-03T01:46:28;2.63;;;1.88;;
60088;SDS011;45961;53.574;55.878;2023-04-03T01:47:29;2.83;;;1.38;;
60088;SDS011;45961;53.574;55.878;2023-04-03T01:48:30;2.97;;;1.38;;
60088;SDS011;45961;53.574;55.878;2023-04-03T01:49:31;2.50;;;1.80;;
60088;SDS011;45961;53.574;55.878;2023-04-03T01:50:33;3.00;;;1.25;;
60088;SDS011;45961;53.574;55.878;2023-04-03T01:51:34;3.92;;;1.50;;
60088;SDS011;45961;53.574;55.878;2023-04-03T01:52:36;5.38;;;2.00;;
60088;SDS011;45961;53.574;55.878;2023-04-03T01:53:37;1.83;;;1.42;;
60088;SDS011;45961;53.574;55.878;2023-04-03T01:54:38;2.83;;;1.20;;
60088;SDS011;45961;53.574;55.878;2023-04-03T01:55:39;2.08;;;1.42;;
60088;SDS011;45961;53.574;55.878;2023-04-03T01:57:42;5.80;;;1.83;;
60088;SDS011;45961;53.574;55.878;2023-04-03T01:58:43;4.03;;;1.55;;
60088;SDS011;45961;53.574;55.878;2023-04-03T01:59:44;6.38;;;1.55;;
60088;SDS011;45961;53.574;55.878;2023-04-03T02:00:45;7.10;;;1.63;;
60088;SDS011;45961;53.574;55.878;2023-04-03T02:01:46;2.40;;;1.30;;
60088;SDS011;45961;53.574;55.878;2023-04-03T02:02:48;2.42;;;1.20;;
60088;SDS011;45961;53.574;55.878;2023-04-03T02:03:49;3.00;;;1.30;;
60088;SDS011;45961;53.574;55.878;2023-04-03T02:04:50;4.25;;;1.23;;
60088;SDS011;45961;53.574;55.878;2023-04-03T02:05:52;4.15;;;1.92;;
60088;SDS011;45961;53.574;55.878;2023-04-03T02:06:53;2.72;;;1.35;;
60088;SDS011;45961;53.574;55.878;2023-04-03T02:07:54;4.50;;;1.33;;
60088;SDS011;45961;53.574;55.878;2023-04-03T02:08:55;3.83;;;1.30;;
60088;SDS011;45961;53.574;55.878;2023-04-03T02:09:56;2.67;;;2.20;;
60088;SDS011;45961;53.574;55.878;2023-04-03T02:10:57;4.82;;;1.83;;
60088;SDS011;45961;53.574;55.878;2023-04-03T02:11:58;6.78;;;1.58;;
60088;SDS011;45961;53.574;55.878;2023-04-03T02:12:59;4.05;;;1.40;;
60088;SDS011;45961;53.574;55.878;2023-04-03T02:14:00;4.07;;;1.77;;
60088;SDS011;45961;53.574;55.878;2023-04-03T02:15:02;5.38;;;1.60;;
60088;SDS011;45961;53.574;55.878;2023-04-03T02:16:06;5.95;;;1.83;;
60088;SDS011;45961;53.574;55.878;2023-04-03T02:17:12;3.10;;;1.33;;
60088;SDS011;45961;53.574;55.878;2023-04-03T02:18:13;5.35;;;1.40;;
60088;SDS011;45961;53.574;55.878;2023-04-03T02:19:15;5.63;;;1.95;;
60088;SDS011;45961;53.574;55.878;2023-04-03T02:21:18;3.05;;;1.65;;
60088;SDS011;45961;53.574;55.878;2023-04-03T02:22:19;3.92;;;1.38;;
60088;SDS011;45961;53.574;55.878;2023-04-03T02:24:21;4.00;;;1.45;;
60088;SDS011;45961;53.574;55.878;2023-04-03T02:25:22;3.33;;;1.48;;
60088;SDS011;45961;53.574;55.878;2023-04-03T02:26:24;5.63;;;1.38;;
60088;SDS011;45961;53.574;55.878;2023-04-03T02:28:27;4.75;;;1.88;;
60088;SDS011;45961;53.574;55.878;2023-04-03T02:29:30;3.00;;;1.70;;
60088;SDS011;45961;53.574;55.878;2023-04-03T02:30:31;3.00;;;1.38;;
60088;SDS011;45961;53.574;55.878;2023-04-03T02:31:32;4.82;;;1.40;;
60088;SDS011;45961;53.574;55.878;2023-04-03T02:32:35;5.65;;;1.40;;
60088;SDS011;45961;53.574;55.878;2023-04-03T02:33:37;5.00;;;1.85;;
60088;SDS011;45961;53.574;55.878;2023-04-03T02:34:41;6.63;;;2.33;;
60088;SDS011;45961;53.574;55.878;2023-04-03T02:35:43;3.50;;;1.40;;
60088;SDS011;45961;53.574;55.878;2023-04-03T02:36:44;6.53;;;1.52;;
60088;SDS011;45961;53.574;55.878;2023-04-03T02:37:46;4.03;;;2.00;;
60088;SDS011;45961;53.574;55.878;2023-04-03T02:38:48;4.25;;;1.50;;
60088;SDS011;45961;53.574;55.878;2023-04-03T02:39:49;5.78;;;1.73;;
60088;SDS011;45961;53.574;55.878;2023-04-03T02:40:51;4.13;;;1.52;;
60088;SDS011;45961;53.574;55.878;2023-04-03T02:42:57;2.28;;;1.35;;
60088;SDS011;45961;53.574;55.878;2023-04-03T02:43:59;7.32;;;1.80;;
60088;SDS011;45961;53.574;55.878;2023-04-03T02:45:00;7.80;;;2.53;;
60088;SDS011;45961;53.574;55.878;2023-04-03T02:46:03;4.85;;;1.63;;
60088;SDS011;45961;53.574;55.878;2023-04-03T02:47:05;2.78;;;1.85;;
60088;SDS011;45961;53.574;55.878;2023-04-03T02:48:07;4.65;;;1.67;;
60088;SDS011;45961;53.574;55.878;2023-04-03T02:49:09;4.28;;;2.20;;
60088;SDS011;45961;53.574;55.878;2023-04-03T02:50:10;5.70;;;2.03;;
60088;SDS011;45961;53.574;55.878;2023-04-03T02:51:11;3.05;;;1.70;;
60088;SDS011;45961;53.574;55.878;2023-04-03T02:52:13;6.25;;;1.73;;
60088;SDS011;45961;53.574;55.878;2023-04-03T02:53:14;6.60;;;1.88;;
60088;SDS011;45961;53.574;55.878;2023-04-03T02:54:16;6.35;;;1.90;;
60088;SDS011;45961;53.574;55.878;2023-04-03T02:55:22;6.70;;;2.10;;
60088;SDS011;45961;53.574;55.878;2023-04-03T02:56:25;8.05;;;2.45;;
60088;SDS011;45961;53.574;55.878;2023-04-03T02:57:27;7.88;;;1.98;;
60088;SDS011;45961;53.574;55.878;2023-04-03T02:58:28;3.00;;;1.83;;
60088;SDS011;45961;53.574;55.878;2023-04-03T02:59:31;8.90;;;3.35;;
60088;SDS011;45961;53.574;55.878;2023-04-03T03:00:32;4.55;;;2.08;;
60088;SDS011;45961;53.574;55.878;2023-04-03T03:01:34;4.75;;;1.80;;
60088;SDS011;45961;53.574;55.878;2023-04-03T03:02:36;4.38;;;1.92;;
60088;SDS011;45961;53.574;55.878;2023-04-03T03:03:37;5.93;;;2.65;;
60088;SDS011;45961;53.574;55.878;2023-04-03T03:04:38;8.88;;;2.28;;
60088;SDS011;45961;53.574;55.878;2023-04-03T03:05:39;8.77;;;2.80;;
60088;SDS011;45961;53.574;55.878;2023-04-03T03:06:40;9.68;;;2.60;;
60088;SDS011;45961;53.574;55.878;2023-04-03T03:07:42;9.23;;;3.05;;
60088;SDS011;45961;53.574;55.878;2023-04-03T03:08:43;5.78;;;2.60;;
60088;SDS011;45961;53.574;55.878;2023-04-03T03:10:45;9.82;;;3.95;;
60088;SDS011;45961;53.574;55.878;2023-04-03T03:11:46;13.63;;;3.20;;
60088;SDS011;45961;53.574;55.878;2023-04-03T03:12:47;7.80;;;2.70;;
60088;SDS011;45961;53.574;55.878;2023-04-03T03:13:48;6.35;;;2.47;;
60088;SDS011;45961;53.574;55.878;2023-04-03T03:14:49;12.07;;;3.15;;
60088;SDS011;45961;53.574;55.878;2023-04-03T03:15:50;9.43;;;3.03;;
60088;SDS011;45961;53.574;55.878;2023-04-03T03:16:52;8.65;;;2.75;;
60088;SDS011;45961;53.574;55.878;2023-04-03T03:17:53;8.15;;;3.10;;
60088;SDS011;45961;53.574;55.878;2023-04-03T03:18:54;9.88;;;3.53;;
60088;SDS011;45961;53.574;55.878;2023-04-03T03:19:55;10.13;;;3.05;;
60088;SDS011;45961;53.574;55.878;2023-04-03T03:20:57;13.00;;;2.78;;
60088;SDS011;45961;53.574;55.878;2023-04-03T03:21:59;7.80;;;2.85;;
60088;SDS011;45961;53.574;55.878;2023-04-03T03:23:00;10.75;;;3.40;;
60088;SDS011;45961;53.574;55.878;2023-04-03T03:24:01;10.25;;;3.55;;
60088;SDS011;45961;53.574;55.878;2023-04-03T03:25:02;10.77;;;3.13;;
60088;SDS011;45961;53.574;55.878;2023-04-03T03:26:05;11.93;;;3.60;;
60088;SDS011;45961;53.574;55.878;2023-04-03T03:27:08;12.20;;;3.60;;
60088;SDS011;45961;53.574;55.878;2023-04-03T03:30:12;10.80;;;3.05;;
60088;SDS011;45961;53.574;55.878;2023-04-03T03:31:14;9.90;;;3.03;;
60088;SDS011;45961;53.574;55.878;2023-04-03T03:32:15;9.65;;;2.97;;
60088;SDS011;45961;53.574;55.878;2023-04-03T03:33:17;14.02;;;2.75;;
60088;SDS011;45961;53.574;55.878;2023-04-03T03:34:19;14.48;;;3.40;;
60088;SDS011;45961;53.574;55.878;2023-04-03T03:36:22;8.35;;;1.90;;
60088;SDS011;45961;53.574;55.878;2023-04-03T03:37:23;13.82;;;2.67;;
60088;SDS011;45961;53.574;55.878;2023-04-03T03:38:24;9.05;;;2.00;;
60088;SDS011;45961;53.574;55.878;2023-04-03T03:39:26;12.70;;;2.72;;
60088;SDS011;45961;53.574;55.878;2023-04-03T03:40:27;9.73;;;2.00;;
60088;SDS011;45961;53.574;55.878;2023-04-03T03:41:28;10.50;;;2.30;;
60088;SDS011;45961;53.574;55.878;2023-04-03T03:42:29;7.88;;;2.80;;
60088;SDS011;45961;53.574;55.878;2023-04-03T03:43:30;10.70;;;2.40;;
60088;SDS011;45961;53.574;55.878;2023-04-03T03:44:31;10.90;;;2.85;;
60088;SDS011;45961;53.574;55.878;2023-04-03T03:45:33;8.23;;;2.55;;
60088;SDS011;45961;53.574;55.878;2023-04-03T03:46:35;11.20;;;2.78;;
60088;SDS011;45961;53.574;55.878;2023-04-03T03:48:38;10.57;;;2.65;;
60088;SDS011;45961;53.574;55.878;2023-04-03T03:49:39;10.90;;;4.38;;
60088;SDS011;45961;53.574;55.878;2023-04-03T03:50:40;15.70;;;3.00;;
60088;SDS011;45961;53.574;55.878;2023-04-03T03:51:41;15.70;;;3.30;;
60088;SDS011;45961;53.574;55.878;2023-04-03T03:52:42;12.25;;;2.72;;
60088;SDS011;45961;53.574;55.878;2023-04-03T03:53:43;12.43;;;2.80;;
60088;SDS011;45961;53.574;55.878;2023-04-03T03:54:48;15.25;;;3.20;;
60088;SDS011;45961;53.574;55.878;2023-04-03T03:55:50;15.95;;;3.50;;
60088;SDS011;45961;53.574;55.878;2023-04-03T03:56:53;11.57;;;2.53;;
60088;SDS011;45961;53.574;55.878;2023-04-03T03:57:55;17.90;;;3.35;;
60088;SDS011;45961;53.574;55.878;2023-04-03T03:59:57;10.05;;;2.60;;
60088;SDS011;45961;53.574;55.878;2023-04-03T04:01:04;10.73;;;2.78;;
60088;SDS011;45961;53.574;55.878;2023-04-03T04:02:07;13.52;;;4.38;;
60088;SDS011;45961;53.574;55.878;2023-04-03T04:03:09;13.70;;;2.40;;
60088;SDS011;45961;53.574;55.878;2023-04-03T04:04:10;11.63;;;3.00;;
60088;SDS011;45961;53.574;55.878;2023-04-03T04:06:12;6.53;;;2.67;;
60088;SDS011;45961;53.574;55.878;2023-04-03T04:07:13;4.20;;;1.25;;
60088;SDS011;45961;53.574;55.878;2023-04-03T04:08:15;6.05;;;1.10;;
60088;SDS011;45961;53.574;55.878;2023-04-03T04:09:17;4.40;;;1.52;;
60088;SDS011;45961;53.574;55.878;2023-04-03T04:10:19;5.90;;;2.13;;
60088;SDS011;45961;53.574;55.878;2023-04-03T04:11:21;4.43;;;1.15;;
60088;SDS011;45961;53.574;55.878;2023-04-03T04:12:23;2.25;;;0.88;;
60088;SDS011;45961;53.574;55.878;2023-04-03T04:14:25;3.95;;;1.05;;
60088;SDS011;45961;53.574;55.878;2023-04-03T04:15:27;3.08;;;1.10;;
60088;SDS011;45961;53.574;55.878;2023-04-03T04:16:29;6.65;;;1.00;;
60088;SDS011;45961;53.574;55.878;2023-04-03T04:17:34;2.35;;;0.80;;
60088;SDS011;45961;53.574;55.878;2023-04-03T04:18:37;4.13;;;0.90;;
60088;SDS011;45961;53.574;55.878;2023-04-03T04:19:38;3.83;;;0.90;;
60088;SDS011;45961;53.574;55.878;2023-04-03T04:20:39;4.55;;;1.30;;
60088;SDS011;45961;53.574;55.878;2023-04-03T04:21:40;3.08;;;0.90;;
60088;SDS011;45961;53.574;55.878;2023-04-03T04:22:42;3.60;;;0.90;;
60088;SDS011;45961;53.574;55.878;2023-04-03T04:24:47;2.08;;;0.85;;
60088;SDS011;45961;53.574;55.878;2023-04-03T04:25:49;3.78;;;0.80;;
60088;SDS011;45961;53.574;55.878;2023-04-03T04:26:51;1.83;;;0.77;;
60088;SDS011;45961;53.574;55.878;2023-04-03T04:27:53;2.40;;;1.00;;
60088;SDS011;45961;53.574;55.878;2023-04-03T04:28:53;5.97;;;1.33;;
60088;SDS011;45961;53.574;55.878;2023-04-03T04:29:55;3.05;;;0.85;;
60088;SDS011;45961;53.574;55.878;2023-04-03T04:30:56;3.28;;;0.95;;
60088;SDS011;45961;53.574;55.878;2023-04-03T04:32:02;2.30;;;0.90;;
60088;SDS011;45961;53.574;55.878;2023-04-03T04:33:04;3.40;;;1.00;;
60088;SDS011;45961;53.574;55.878;2023-04-03T04:34:07;3.38;;;1.00;;
60088;SDS011;45961;53.574;55.878;2023-04-03T04:35:10;2.65;;;0.80;;
60088;SDS011;45961;53.574;55.878;2023-04-03T04:36:15;2.10;;;0.80;;
60088;SDS011;45961;53.574;55.878;2023-04-03T04:37:18;1.27;;;0.82;;
60088;SDS011;45961;53.574;55.878;2023-04-03T04:38:21;3.83;;;1.10;;
60088;SDS011;45961;53.574;55.878;2023-04-03T04:39:24;2.17;;;0.70;;
60088;SDS011;45961;53.574;55.878;2023-04-03T04:40:26;2.28;;;1.15;;
60088;SDS011;45961;53.574;55.878;2023-04-03T04:41:28;3.28;;;1.10;;
60088;SDS011;45961;53.574;55.878;2023-04-03T04:43:30;6.10;;;1.10;;
60088;SDS011;45961;53.574;55.878;2023-04-03T04:44:31;7.28;;;1.48;;
60088;SDS011;45961;53.574;55.878;2023-04-03T04:45:32;4.30;;;0.82;;
60088;SDS011;45961;53.574;55.878;2023-04-03T04:46:34;3.33;;;1.10;;
60088;SDS011;45961;53.574;55.878;2023-04-03T04:47:36;2.10;;;0.90;;
60088;SDS011;45961;53.574;55.878;2023-04-03T04:49:39;1.70;;;0.95;;
60088;SDS011;45961;53.574;55.878;2023-04-03T04:50:40;2.70;;;0.70;;
60088;SDS011;45961;53.574;55.878;2023-04-03T04:51:42;2.38;;;1.10;;
60088;SDS011;45961;53.574;55.878;2023-04-03T04:52:44;2.33;;;1.25;;
60088;SDS011;45961;53.574;55.878;2023-04-03T04:53:45;4.22;;;0.90;;
60088;SDS011;45961;53.574;55.878;2023-04-03T04:54:48;1.67;;;0.90;;
60088;SDS011;45961;53.574;55.878;2023-04-03T04:55:49;2.90;;;1.17;;
60088;SDS011;45961;53.574;55.878;2023-04-03T04:56:52;3.47;;;1.52;;
60088;SDS011;45961;53.574;55.878;2023-04-03T04:57:53;1.88;;;0.73;;
60088;SDS011;45961;53.574;55.878;2023-04-03T04:58:55;1.50;;;1.00;;
60088;SDS011;45961;53.574;55.878;2023-04-03T04:59:57;1.85;;;0.80;;
60088;SDS011;45961;53.574;55.878;2023-04-03T05:00:59;5.00;;;1.15;;
60088;SDS011;45961;53.574;55.878;2023-04-03T05:02:02;2.65;;;1.20;;
60088;SDS011;45961;53.574;55.878;2023-04-03T05:03:03;3.90;;;1.10;;
60088;SDS011;45961;53.574;55.878;2023-04-03T05:04:04;6.38;;;1.40;;
60088;SDS011;45961;53.574;55.878;2023-04-03T05:05:06;3.85;;;0.73;;
60088;SDS011;45961;53.574;55.878;2023-04-03T05:06:08;2.65;;;1.38;;
60088;SDS011;45961;53.574;55.878;2023-04-03T05:07:10;7.53;;;2.20;;
60088;SDS011;45961;53.574;55.878;2023-04-03T05:08:14;6.88;;;1.25;;
60088;SDS011;45961;53.574;55.878;2023-04-03T05:09:16;3.72;;;1.10;;
60088;SDS011;45961;53.574;55.878;2023-04-03T05:10:19;4.30;;;1.23;;
60088;SDS011;45961;53.574;55.878;2023-04-03T05:11:21;3.88;;;1.23;;
60088;SDS011;45961;53.574;55.878;2023-04-03T05:12:25;7.43;;;1.17;;
60088;SDS011;45961;53.574;55.878;2023-04-03T05:13:31;3.42;;;1.00;;
60088;SDS011;45961;53.574;55.878;2023-04-03T05:14:34;4.40;;;1.00;;
60088;SDS011;45961;53.574;55.878;2023-04-03T05:15:39;2.40;;;1.10;;
60088;SDS011;45961;53.574;55.878;2023-04-03T05:16:40;5.40;;;1.30;;
60088;SDS011;45961;53.574;55.878;2023-04-03T05:17:42;3.65;;;1.20;;
60088;SDS011;45961;53.574;55.878;2023-04-03T05:18:46;7.00;;;1.50;;
60088;SDS011;45961;53.574;55.878;2023-04-03T05:19:53;8.95;;;1.92;;
60088;SDS011;45961;53.574;55.878;2023-04-03T05:20:56;8.05;;;2.85;;
60088;SDS011;45961;53.574;55.878;2023-04-03T05:22:00;5.10;;;1.90;;
60088;SDS011;45961;53.574;55.878;2023-04-03T05:23:04;3.53;;;1.33;;
60088;SDS011;45961;53.574;55.878;2023-04-03T05:24:08;4.03;;;1.05;;
60088;SDS011;45961;53.574;55.878;2023-04-03T05:25:13;1.52;;;1.10;;
60088;SDS011;45961;53.574;55.878;2023-04-03T05:26:20;4.30;;;1.02;;
60088;SDS011;45961;53.574;55.878;2023-04-03T05:27:24;3.42;;;1.30;;
60088;SDS011;45961;53.574;55.878;2023-04-03T05:28:29;4.30;;;1.00;;
60088;SDS011;45961;53.574;55.878;2023-04-03T05:29:31;3.92;;;1.35;;
60088;SDS011;45961;53.574;55.878;2023-04-03T05:30:34;4.07;;;1.77;;
60088;SDS011;45961;53.574;55.878;2023-04-03T05:31:37;6.00;;;1.60;;
60088;SDS011;45961;53.574;55.878;2023-04-03T05:32:41;5.43;;;1.35;;
60088;SDS011;45961;53.574;55.878;2023-04-03T05:33:51;4.43;;;0.88;;
60088;SDS011;45961;53.574;55.878;2023-04-03T05:34:53;4.45;;;1.55;;
60088;SDS011;45961;53.574;55.878;2023-04-03T05:35:55;2.75;;;0.90;;
60088;SDS011;45961;53.574;55.878;2023-04-03T05:37:00;4.60;;;1.30;;
60088;SDS011;45961;53.574;55.878;2023-04-03T05:38:03;5.38;;;1.23;;
60088;SDS011;45961;53.574;55.878;2023-04-03T05:39:06;8.98;;;1.33;;
60088;SDS011;45961;53.574;55.878;2023-04-03T05:40:11;7.90;;;1.67;;
60088;SDS011;45961;53.574;55.878;2023-04-03T05:41:17;4.25;;;1.00;;
60088;SDS011;45961;53.574;55.878;2023-04-03T05:42:20;7.07;;;1.50;;
60088;SDS011;45961;53.574;55.878;2023-04-03T05:43:22;3.45;;;0.95;;
60088;SDS011;45961;53.574;55.878;2023-04-03T05:44:24;4.90;;;1.17;;
60088;SDS011;45961;53.574;55.878;2023-04-03T05:45:28;4.00;;;0.75;;
60088;SDS011;45961;53.574;55.878;2023-04-03T05:46:32;3.88;;;0.98;;
60088;SDS011;45961;53.574;55.878;2023-04-03T05:47:37;5.43;;;0.93;;
60088;SDS011;45961;53.574;55.878;2023-04-03T05:48:40;3.90;;;0.90;;
60088;SDS011;45961;53.574;55.878;2023-04-03T05:50:02;5.55;;;0.93;;
60088;SDS011;45961;53.574;55.878;2023-04-03T05:51:05;3.85;;;0.93;;
60088;SDS011;45961;53.574;55.878;2023-04-03T05:52:42;9.13;;;1.10;;
60088;SDS011;45961;53.574;55.878;2023-04-03T05:54:06;4.85;;;1.00;;
60088;SDS011;45961;53.574;55.878;2023-04-03T05:55:13;3.55;;;0.93;;
60088;SDS011;45961;53.574;55.878;2023-04-03T05:56:35;2.97;;;0.63;;
60088;SDS011;45961;53.574;55.878;2023-04-03T05:57:36;4.85;;;0.95;;
60088;SDS011;45961;53.574;55.878;2023-04-03T05:58:39;5.55;;;1.00;;
60088;SDS011;45961;53.574;55.878;2023-04-03T05:59:40;6.20;;;0.90;;
60088;SDS011;45961;53.574;55.878;2023-04-03T06:00:42;3.47;;;1.13;;
60088;SDS011;45961;53.574;55.878;2023-04-03T06:01:43;2.47;;;0.80;;
60088;SDS011;45961;53.574;55.878;2023-04-03T06:02:47;10.52;;;1.23;;
60088;SDS011;45961;53.574;55.878;2023-04-03T06:03:53;6.15;;;0.93;;
60088;SDS011;45961;53.574;55.878;2023-04-03T06:04:55;6.82;;;1.20;;
60088;SDS011;45961;53.574;55.878;2023-04-03T06:05:57;6.28;;;1.02;;
60088;SDS011;45961;53.574;55.878;2023-04-03T06:07:01;5.82;;;1.00;;
60088;SDS011;45961;53.574;55.878;2023-04-03T06:08:03;5.68;;;1.50;;
60088;SDS011;45961;53.574;55.878;2023-04-03T06:09:05;7.72;;;1.30;;
60088;SDS011;45961;53.574;55.878;2023-04-03T06:10:07;8.15;;;1.48;;
60088;SDS011;45961;53.574;55.878;2023-04-03T06:11:09;7.10;;;0.98;;
60088;SDS011;45961;53.574;55.878;2023-04-03T06:12:11;6.55;;;1.77;;
60088;SDS011;45961;53.574;55.878;2023-04-03T06:13:16;3.72;;;1.13;;
60088;SDS011;45961;53.574;55.878;2023-04-03T06:14:17;6.43;;;1.38;;
60088;SDS011;45961;53.574;55.878;2023-04-03T06:15:19;6.28;;;1.73;;
60088;SDS011;45961;53.574;55.878;2023-04-03T06:16:21;6.43;;;1.20;;
60088;SDS011;45961;53.574;55.878;2023-04-03T06:17:23;7.63;;;1.42;;
60088;SDS011;45961;53.574;55.878;2023-04-03T06:18:28;7.78;;;1.15;;
60088;SDS011;45961;53.574;55.878;2023-04-03T06:19:49;9.13;;;1.40;;
60088;SDS011;45961;53.574;55.878;2023-04-03T06:20:52;11.65;;;1.67;;
60088;SDS011;45961;53.574;55.878;2023-04-03T06:21:54;7.32;;;1.20;;
60088;SDS011;45961;53.574;55.878;2023-04-03T06:22:55;5.85;;;1.20;;
60088;SDS011;45961;53.574;55.878;2023-04-03T06:23:57;11.95;;;1.77;;
60088;SDS011;45961;53.574;55.878;2023-04-03T06:24:59;15.75;;;1.67;;
60088;SDS011;45961;53.574;55.878;2023-04-03T06:26:00;20.60;;;1.70;;
60088;SDS011;45961;53.574;55.878;2023-04-03T06:27:04;9.10;;;1.95;;
60088;SDS011;45961;53.574;55.878;2023-04-03T06:28:06;12.85;;;1.80;;
60088;SDS011;45961;53.574;55.878;2023-04-03T06:29:28;28.85;;;3.17;;
60088;SDS011;45961;53.574;55.878;2023-04-03T06:30:30;11.70;;;1.88;;
60088;SDS011;45961;53.574;55.878;2023-04-03T06:31:32;12.00;;;1.60;;
60088;SDS011;45961;53.574;55.878;2023-04-03T06:32:36;6.20;;;1.40;;
60088;SDS011;45961;53.574;55.878;2023-04-03T06:33:38;11.07;;;1.40;;
60088;SDS011;45961;53.574;55.878;2023-04-03T06:34:39;6.57;;;1.48;;
60088;SDS011;45961;53.574;55.878;2023-04-03T06:35:42;10.13;;;1.30;;
60088;SDS011;45961;53.574;55.878;2023-04-03T06:36:44;9.57;;;1.10;;
60088;SDS011;45961;53.574;55.878;2023-04-03T06:37:48;9.82;;;1.38;;
60088;SDS011;45961;53.574;55.878;2023-04-03T06:38:49;6.93;;;1.00;;
60088;SDS011;45961;53.574;55.878;2023-04-03T06:39:51;11.43;;;1.85;;
60088;SDS011;45961;53.574;55.878;2023-04-03T06:40:53;15.00;;;1.35;;